sensor_id;sensor_type;location;lat;lon;timestamp;P1;durP1;ratioP1;P2;durP2;ratioP2
20966;SDS011;10642;50.682;18.510;2023-05-07T00:02:20;2.93;;;2.10;;
20966;SDS011;10642;50.682;18.510;2023-05-07T00:04:47;5.03;;;2.50;;
20966;SDS011;10642;50.682;18.510;2023-05-07T00:07:15;3.90;;;2.10;;
20966;SDS011;10642;50.682;18.510;2023-05-07T00:09:42;5.47;;;2.50;;
20966;SDS011;10642;50.682;18.510;2023-05-07T00:12:10;4.50;;;2.60;;
20966;SDS011;10642;50.682;18.510;2023-05-07T00:14:36;5.47;;;2.60;;
20966;SDS011;10642;50.682;18.510;2023-05-07T00:17:03;2.97;;;2.23;;
20966;SDS011;10642;50.682;18.510;2023-05-07T00:19:30;4.43;;;2.70;;
20966;SDS011;10642;50.682;18.510;2023-05-07T00:21:58;3.20;;;2.10;;
20966;SDS011;10642;50.682;18.510;2023-05-07T00:24:25;5.83;;;2.63;;
20966;SDS011;10642;50.682;18.510;2023-05-07T00:26:52;3.37;;;2.17;;
20966;SDS011;10642;50.682;18.510;2023-05-07T00:29:19;5.57;;;2.37;;
20966;SDS011;10642;50.682;18.510;2023-05-07T00:35:15;4.80;;;2.50;;
20966;SDS011;10642;50.682;18.510;2023-05-07T00:37:42;5.23;;;3.80;;
20966;SDS011;10642;50.682;18.510;2023-05-07T00:40:09;5.00;;;3.70;;
20966;SDS011;10642;50.682;18.510;2023-05-07T00:42:36;8.53;;;5.67;;
20966;SDS011;10642;50.682;18.510;2023-05-07T00:45:03;9.37;;;5.93;;
20966;SDS011;10642;50.682;18.510;2023-05-07T00:47:30;7.53;;;4.37;;
20966;SDS011;10642;50.682;18.510;2023-05-07T00:49:58;5.73;;;3.03;;
20966;SDS011;10642;50.682;18.510;2023-05-07T00:52:25;5.33;;;3.30;;
20966;SDS011;10642;50.682;18.510;2023-05-07T00:54:52;4.73;;;3.23;;
20966;SDS011;10642;50.682;18.510;2023-05-07T00:57:19;4.47;;;3.27;;
20966;SDS011;10642;50.682;18.510;2023-05-07T00:59:48;8.03;;;3.97;;
20966;SDS011;10642;50.682;18.510;2023-05-07T01:02:15;4.73;;;3.37;;
20966;SDS011;10642;50.682;18.510;2023-05-07T01:04:42;6.03;;;3.37;;
20966;SDS011;10642;50.682;18.510;2023-05-07T01:07:09;5.53;;;3.27;;
20966;SDS011;10642;50.682;18.510;2023-05-07T01:09:36;4.43;;;2.60;;
20966;SDS011;10642;50.682;18.510;2023-05-07T01:12:03;4.40;;;2.70;;
20966;SDS011;10642;50.682;18.510;2023-05-07T01:14:31;3.47;;;2.30;;
20966;SDS011;10642;50.682;18.510;2023-05-07T01:16:59;2.80;;;2.10;;
20966;SDS011;10642;50.682;18.510;2023-05-07T01:19:26;2.83;;;1.87;;
20966;SDS011;10642;50.682;18.510;2023-05-07T01:21:55;2.70;;;1.80;;
20966;SDS011;10642;50.682;18.510;2023-05-07T01:24:27;2.27;;;1.53;;
20966;SDS011;10642;50.682;18.510;2023-05-07T01:26:54;7.67;;;1.97;;
20966;SDS011;10642;50.682;18.510;2023-05-07T01:29:21;2.67;;;1.50;;
20966;SDS011;10642;50.682;18.510;2023-05-07T01:31:48;2.70;;;1.60;;
20966;SDS011;10642;50.682;18.510;2023-05-07T01:34:16;1.90;;;1.20;;
20966;SDS011;10642;50.682;18.510;2023-05-07T01:36:44;2.90;;;1.37;;
20966;SDS011;10642;50.682;18.510;2023-05-07T01:39:11;4.37;;;1.40;;
20966;SDS011;10642;50.682;18.510;2023-05-07T01:41:38;2.40;;;1.43;;
20966;SDS011;10642;50.682;18.510;2023-05-07T01:44:05;3.03;;;1.10;;
20966;SDS011;10642;50.682;18.510;2023-05-07T01:46:32;1.67;;;1.07;;
20966;SDS011;10642;50.682;18.510;2023-05-07T01:49:00;2.70;;;1.17;;
20966;SDS011;10642;50.682;18.510;2023-05-07T01:51:27;3.50;;;1.97;;
20966;SDS011;10642;50.682;18.510;2023-05-07T01:53:54;3.13;;;1.47;;
20966;SDS011;10642;50.682;18.510;2023-05-07T01:56:22;2.07;;;1.43;;
20966;SDS011;10642;50.682;18.510;2023-05-07T01:58:49;2.70;;;1.40;;
20966;SDS011;10642;50.682;18.510;2023-05-07T02:01:17;2.83;;;1.30;;
20966;SDS011;10642;50.682;18.510;2023-05-07T02:03:45;3.07;;;1.50;;
20966;SDS011;10642;50.682;18.510;2023-05-07T02:06:19;3.30;;;1.40;;
20966;SDS011;10642;50.682;18.510;2023-05-07T02:08:47;2.17;;;1.60;;
20966;SDS011;10642;50.682;18.510;2023-05-07T02:11:15;4.13;;;1.33;;
20966;SDS011;10642;50.682;18.510;2023-05-07T02:13:42;2.37;;;1.27;;
20966;SDS011;10642;50.682;18.510;2023-05-07T02:16:09;7.77;;;1.50;;
20966;SDS011;10642;50.682;18.510;2023-05-07T02:18:38;2.50;;;1.60;;
20966;SDS011;10642;50.682;18.510;2023-05-07T02:21:05;2.23;;;1.20;;
20966;SDS011;10642;50.682;18.510;2023-05-07T02:23:32;2.60;;;1.43;;
20966;SDS011;10642;50.682;18.510;2023-05-07T02:25:59;2.97;;;1.60;;
20966;SDS011;10642;50.682;18.510;2023-05-07T02:28:26;2.70;;;1.77;;
20966;SDS011;10642;50.682;18.510;2023-05-07T02:30:57;3.20;;;1.50;;
20966;SDS011;10642;50.682;18.510;2023-05-07T02:33:27;4.50;;;1.70;;
20966;SDS011;10642;50.682;18.510;2023-05-07T02:35:54;2.50;;;1.37;;
20966;SDS011;10642;50.682;18.510;2023-05-07T02:38:22;3.80;;;1.60;;
20966;SDS011;10642;50.682;18.510;2023-05-07T02:40:49;5.93;;;2.13;;
20966;SDS011;10642;50.682;18.510;2023-05-07T02:43:16;3.13;;;1.70;;
20966;SDS011;10642;50.682;18.510;2023-05-07T02:45:45;2.60;;;1.87;;
20966;SDS011;10642;50.682;18.510;2023-05-07T02:48:14;2.97;;;1.67;;
20966;SDS011;10642;50.682;18.510;2023-05-07T02:50:41;3.53;;;1.80;;
20966;SDS011;10642;50.682;18.510;2023-05-07T02:53:10;2.30;;;1.37;;
20966;SDS011;10642;50.682;18.510;2023-05-07T02:55:37;2.23;;;1.33;;
20966;SDS011;10642;50.682;18.510;2023-05-07T02:58:04;5.63;;;1.70;;
20966;SDS011;10642;50.682;18.510;2023-05-07T03:00:34;3.83;;;1.97;;
20966;SDS011;10642;50.682;18.510;2023-05-07T03:03:23;3.10;;;1.83;;
20966;SDS011;10642;50.682;18.510;2023-05-07T03:05:50;3.60;;;1.63;;
20966;SDS011;10642;50.682;18.510;2023-05-07T03:08:17;2.37;;;1.80;;
20966;SDS011;10642;50.682;18.510;2023-05-07T03:10:44;3.77;;;1.80;;
20966;SDS011;10642;50.682;18.510;2023-05-07T03:13:11;3.40;;;1.80;;
20966;SDS011;10642;50.682;18.510;2023-05-07T03:15:38;3.43;;;1.90;;
20966;SDS011;10642;50.682;18.510;2023-05-07T03:18:05;2.60;;;1.80;;
20966;SDS011;10642;50.682;18.510;2023-05-07T03:20:33;4.87;;;2.40;;
20966;SDS011;10642;50.682;18.510;2023-05-07T03:23:00;5.17;;;2.03;;
20966;SDS011;10642;50.682;18.510;2023-05-07T03:25:27;4.40;;;2.07;;
20966;SDS011;10642;50.682;18.510;2023-05-07T03:27:54;4.60;;;2.07;;
20966;SDS011;10642;50.682;18.510;2023-05-07T03:30:26;5.43;;;2.27;;
20966;SDS011;10642;50.682;18.510;2023-05-07T03:32:53;3.40;;;1.90;;
20966;SDS011;10642;50.682;18.510;2023-05-07T03:35:20;4.73;;;2.00;;
20966;SDS011;10642;50.682;18.510;2023-05-07T03:37:47;3.23;;;2.17;;
20966;SDS011;10642;50.682;18.510;2023-05-07T03:40:14;3.50;;;2.00;;
20966;SDS011;10642;50.682;18.510;2023-05-07T03:42:47;5.87;;;2.50;;
20966;SDS011;10642;50.682;18.510;2023-05-07T03:45:17;3.27;;;2.30;;
20966;SDS011;10642;50.682;18.510;2023-05-07T03:47:50;7.13;;;2.57;;
20966;SDS011;10642;50.682;18.510;2023-05-07T03:50:19;3.47;;;2.10;;
20966;SDS011;10642;50.682;18.510;2023-05-07T03:52:46;3.10;;;2.10;;
20966;SDS011;10642;50.682;18.510;2023-05-07T03:55:16;5.10;;;2.20;;
20966;SDS011;10642;50.682;18.510;2023-05-07T03:57:47;3.73;;;1.90;;
20966;SDS011;10642;50.682;18.510;2023-05-07T04:00:15;4.70;;;2.17;;
20966;SDS011;10642;50.682;18.510;2023-05-07T04:02:47;3.47;;;2.20;;
20966;SDS011;10642;50.682;18.510;2023-05-07T04:05:21;3.90;;;2.17;;
20966;SDS011;10642;50.682;18.510;2023-05-07T04:07:51;4.03;;;2.47;;
20966;SDS011;10642;50.682;18.510;2023-05-07T04:10:24;3.67;;;2.27;;
20966;SDS011;10642;50.682;18.510;2023-05-07T04:12:54;4.27;;;2.30;;
20966;SDS011;10642;50.682;18.510;2023-05-07T04:15:22;4.13;;;2.50;;
20966;SDS011;10642;50.682;18.510;2023-05-07T04:17:49;3.47;;;2.20;;
20966;SDS011;10642;50.682;18.510;2023-05-07T04:20:19;3.70;;;2.40;;
20966;SDS011;10642;50.682;18.510;2023-05-07T04:22:53;4.97;;;2.13;;
20966;SDS011;10642;50.682;18.510;2023-05-07T04:25:20;2.63;;;1.80;;
20966;SDS011;10642;50.682;18.510;2023-05-07T04:27:48;3.77;;;2.10;;
20966;SDS011;10642;50.682;18.510;2023-05-07T04:30:16;3.80;;;2.10;;
20966;SDS011;10642;50.682;18.510;2023-05-07T04:32:43;3.63;;;1.90;;
20966;SDS011;10642;50.682;18.510;2023-05-07T04:35:11;3.77;;;1.60;;
20966;SDS011;10642;50.682;18.510;2023-05-07T04:37:38;3.47;;;2.00;;
20966;SDS011;10642;50.682;18.510;2023-05-07T04:40:05;2.93;;;1.83;;
20966;SDS011;10642;50.682;18.510;2023-05-07T04:42:33;3.73;;;2.13;;
20966;SDS011;10642;50.682;18.510;2023-05-07T04:45:01;6.67;;;2.20;;
20966;SDS011;10642;50.682;18.510;2023-05-07T04:47:31;2.50;;;1.63;;
20966;SDS011;10642;50.682;18.510;2023-05-07T04:50:00;3.13;;;1.77;;
20966;SDS011;10642;50.682;18.510;2023-05-07T04:52:27;3.60;;;1.90;;
20966;SDS011;10642;50.682;18.510;2023-05-07T04:54:54;2.57;;;1.43;;
20966;SDS011;10642;50.682;18.510;2023-05-07T04:57:21;3.03;;;1.70;;
20966;SDS011;10642;50.682;18.510;2023-05-07T04:59:48;2.97;;;1.57;;
20966;SDS011;10642;50.682;18.510;2023-05-07T05:02:15;2.20;;;1.63;;
20966;SDS011;10642;50.682;18.510;2023-05-07T05:04:46;5.00;;;2.00;;
20966;SDS011;10642;50.682;18.510;2023-05-07T05:07:13;2.60;;;1.50;;
20966;SDS011;10642;50.682;18.510;2023-05-07T05:09:41;2.10;;;1.53;;
20966;SDS011;10642;50.682;18.510;2023-05-07T05:12:08;2.57;;;1.37;;
20966;SDS011;10642;50.682;18.510;2023-05-07T05:14:37;2.30;;;1.50;;
20966;SDS011;10642;50.682;18.510;2023-05-07T05:17:04;2.20;;;1.43;;
20966;SDS011;10642;50.682;18.510;2023-05-07T05:19:32;2.57;;;1.57;;
20966;SDS011;10642;50.682;18.510;2023-05-07T05:21:59;7.37;;;1.67;;
20966;SDS011;10642;50.682;18.510;2023-05-07T05:24:28;3.23;;;1.90;;
20966;SDS011;10642;50.682;18.510;2023-05-07T05:26:55;3.83;;;1.83;;
20966;SDS011;10642;50.682;18.510;2023-05-07T05:29:23;2.30;;;1.50;;
20966;SDS011;10642;50.682;18.510;2023-05-07T05:31:50;5.77;;;1.63;;
20966;SDS011;10642;50.682;18.510;2023-05-07T05:34:18;2.67;;;1.43;;
20966;SDS011;10642;50.682;18.510;2023-05-07T05:36:46;4.20;;;2.10;;
20966;SDS011;10642;50.682;18.510;2023-05-07T05:39:14;4.73;;;1.53;;
20966;SDS011;10642;50.682;18.510;2023-05-07T05:41:41;3.90;;;1.60;;
20966;SDS011;10642;50.682;18.510;2023-05-07T05:44:08;3.50;;;1.83;;
20966;SDS011;10642;50.682;18.510;2023-05-07T05:46:35;3.30;;;1.80;;
20966;SDS011;10642;50.682;18.510;2023-05-07T05:49:03;4.57;;;2.37;;
20966;SDS011;10642;50.682;18.510;2023-05-07T05:51:30;3.23;;;1.73;;
20966;SDS011;10642;50.682;18.510;2023-05-07T05:53:57;4.80;;;1.43;;
20966;SDS011;10642;50.682;18.510;2023-05-07T05:56:24;5.13;;;1.63;;
20966;SDS011;10642;50.682;18.510;2023-05-07T05:58:52;3.53;;;1.60;;
20966;SDS011;10642;50.682;18.510;2023-05-07T06:01:19;7.10;;;3.77;;
20966;SDS011;10642;50.682;18.510;2023-05-07T06:03:48;5.30;;;2.70;;
20966;SDS011;10642;50.682;18.510;2023-05-07T06:06:16;5.07;;;1.93;;
20966;SDS011;10642;50.682;18.510;2023-05-07T06:08:43;5.77;;;1.90;;
20966;SDS011;10642;50.682;18.510;2023-05-07T06:11:13;2.30;;;1.30;;
20966;SDS011;10642;50.682;18.510;2023-05-07T06:13:43;2.67;;;1.77;;
20966;SDS011;10642;50.682;18.510;2023-05-07T06:16:10;2.50;;;1.33;;
20966;SDS011;10642;50.682;18.510;2023-05-07T06:18:37;2.17;;;1.20;;
20966;SDS011;10642;50.682;18.510;2023-05-07T06:21:04;2.07;;;1.27;;
20966;SDS011;10642;50.682;18.510;2023-05-07T06:23:32;2.97;;;1.60;;
20966;SDS011;10642;50.682;18.510;2023-05-07T06:26:00;3.40;;;1.47;;
20966;SDS011;10642;50.682;18.510;2023-05-07T06:28:33;3.77;;;1.40;;
20966;SDS011;10642;50.682;18.510;2023-05-07T06:31:16;3.40;;;1.73;;
20966;SDS011;10642;50.682;18.510;2023-05-07T06:33:50;3.27;;;1.53;;
20966;SDS011;10642;50.682;18.510;2023-05-07T06:36:18;2.63;;;1.80;;
20966;SDS011;10642;50.682;18.510;2023-05-07T06:38:45;1.87;;;1.27;;
20966;SDS011;10642;50.682;18.510;2023-05-07T06:41:14;2.83;;;1.57;;
20966;SDS011;10642;50.682;18.510;2023-05-07T06:43:41;6.20;;;1.40;;
20966;SDS011;10642;50.682;18.510;2023-05-07T06:46:46;2.20;;;1.40;;
20966;SDS011;10642;50.682;18.510;2023-05-07T06:49:13;2.23;;;1.33;;
20966;SDS011;10642;50.682;18.510;2023-05-07T06:51:41;1.43;;;1.10;;
20966;SDS011;10642;50.682;18.510;2023-05-07T06:54:08;1.70;;;1.20;;
20966;SDS011;10642;50.682;18.510;2023-05-07T06:56:37;2.23;;;1.40;;
20966;SDS011;10642;50.682;18.510;2023-05-07T06:59:04;2.00;;;1.77;;
20966;SDS011;10642;50.682;18.510;2023-05-07T07:01:35;2.57;;;1.40;;
20966;SDS011;10642;50.682;18.510;2023-05-07T07:04:03;1.83;;;1.50;;
20966;SDS011;10642;50.682;18.510;2023-05-07T07:06:30;1.90;;;1.33;;
20966;SDS011;10642;50.682;18.510;2023-05-07T07:09:02;2.57;;;1.77;;
20966;SDS011;10642;50.682;18.510;2023-05-07T07:11:30;3.63;;;1.50;;
20966;SDS011;10642;50.682;18.510;2023-05-07T07:13:57;2.40;;;1.43;;
20966;SDS011;10642;50.682;18.510;2023-05-07T07:16:25;2.83;;;1.40;;
20966;SDS011;10642;50.682;18.510;2023-05-07T07:18:52;2.13;;;1.40;;
20966;SDS011;10642;50.682;18.510;2023-05-07T07:21:19;3.13;;;1.77;;
20966;SDS011;10642;50.682;18.510;2023-05-07T07:23:46;2.60;;;1.40;;
20966;SDS011;10642;50.682;18.510;2023-05-07T07:26:14;3.13;;;1.60;;
20966;SDS011;10642;50.682;18.510;2023-05-07T07:28:42;2.90;;;1.60;;
20966;SDS011;10642;50.682;18.510;2023-05-07T07:31:13;2.17;;;1.50;;
20966;SDS011;10642;50.682;18.510;2023-05-07T07:33:41;3.33;;;2.60;;
20966;SDS011;10642;50.682;18.510;2023-05-07T07:36:08;2.33;;;1.40;;
20966;SDS011;10642;50.682;18.510;2023-05-07T07:38:36;7.03;;;2.40;;
20966;SDS011;10642;50.682;18.510;2023-05-07T07:41:03;3.00;;;1.60;;
20966;SDS011;10642;50.682;18.510;2023-05-07T07:43:30;3.13;;;1.30;;
20966;SDS011;10642;50.682;18.510;2023-05-07T07:45:57;4.00;;;1.67;;
20966;SDS011;10642;50.682;18.510;2023-05-07T07:48:25;2.10;;;1.40;;
20966;SDS011;10642;50.682;18.510;2023-05-07T07:50:52;2.67;;;1.77;;
20966;SDS011;10642;50.682;18.510;2023-05-07T07:53:20;2.50;;;1.33;;
20966;SDS011;10642;50.682;18.510;2023-05-07T07:55:47;2.97;;;1.60;;
20966;SDS011;10642;50.682;18.510;2023-05-07T07:58:17;2.87;;;1.70;;
20966;SDS011;10642;50.682;18.510;2023-05-07T08:00:44;2.23;;;1.50;;
20966;SDS011;10642;50.682;18.510;2023-05-07T08:03:12;2.53;;;1.63;;
20966;SDS011;10642;50.682;18.510;2023-05-07T08:05:43;2.53;;;1.80;;
20966;SDS011;10642;50.682;18.510;2023-05-07T08:08:10;4.87;;;1.97;;
20966;SDS011;10642;50.682;18.510;2023-05-07T08:10:39;3.30;;;1.90;;
20966;SDS011;10642;50.682;18.510;2023-05-07T08:13:13;5.37;;;2.37;;
20966;SDS011;10642;50.682;18.510;2023-05-07T08:15:41;2.77;;;1.73;;
20966;SDS011;10642;50.682;18.510;2023-05-07T08:18:09;4.17;;;1.53;;
20966;SDS011;10642;50.682;18.510;2023-05-07T08:20:36;2.00;;;1.40;;
20966;SDS011;10642;50.682;18.510;2023-05-07T08:23:08;2.00;;;1.40;;
20966;SDS011;10642;50.682;18.510;2023-05-07T08:25:37;3.77;;;1.80;;
20966;SDS011;10642;50.682;18.510;2023-05-07T08:28:04;3.43;;;1.80;;
20966;SDS011;10642;50.682;18.510;2023-05-07T08:30:35;2.70;;;1.50;;
20966;SDS011;10642;50.682;18.510;2023-05-07T08:33:02;6.80;;;1.97;;
20966;SDS011;10642;50.682;18.510;2023-05-07T08:35:29;2.00;;;1.50;;
20966;SDS011;10642;50.682;18.510;2023-05-07T08:37:56;2.47;;;1.70;;
20966;SDS011;10642;50.682;18.510;2023-05-07T08:40:25;5.17;;;1.73;;
20966;SDS011;10642;50.682;18.510;2023-05-07T08:42:54;6.57;;;1.80;;
20966;SDS011;10642;50.682;18.510;2023-05-07T08:45:22;2.53;;;1.80;;
20966;SDS011;10642;50.682;18.510;2023-05-07T08:47:51;2.90;;;1.60;;
20966;SDS011;10642;50.682;18.510;2023-05-07T08:50:21;3.03;;;2.03;;
20966;SDS011;10642;50.682;18.510;2023-05-07T08:52:49;2.93;;;1.70;;
20966;SDS011;10642;50.682;18.510;2023-05-07T08:55:18;2.40;;;1.97;;
20966;SDS011;10642;50.682;18.510;2023-05-07T08:57:45;2.83;;;1.80;;
20966;SDS011;10642;50.682;18.510;2023-05-07T09:00:14;2.70;;;1.60;;
20966;SDS011;10642;50.682;18.510;2023-05-07T09:02:43;2.83;;;1.60;;
20966;SDS011;10642;50.682;18.510;2023-05-07T09:05:10;2.93;;;2.10;;
20966;SDS011;10642;50.682;18.510;2023-05-07T09:07:37;2.50;;;1.67;;
20966;SDS011;10642;50.682;18.510;2023-05-07T09:10:06;6.83;;;1.90;;
20966;SDS011;10642;50.682;18.510;2023-05-07T09:12:35;3.03;;;2.13;;
20966;SDS011;10642;50.682;18.510;2023-05-07T09:15:04;2.93;;;2.20;;
20966;SDS011;10642;50.682;18.510;2023-05-07T09:17:32;3.03;;;2.27;;
20966;SDS011;10642;50.682;18.510;2023-05-07T09:20:03;2.97;;;2.00;;
20966;SDS011;10642;50.682;18.510;2023-05-07T09:22:38;5.87;;;3.90;;
20966;SDS011;10642;50.682;18.510;2023-05-07T09:25:09;2.77;;;2.10;;
20966;SDS011;10642;50.682;18.510;2023-05-07T09:27:38;4.53;;;2.97;;
20966;SDS011;10642;50.682;18.510;2023-05-07T09:30:05;6.27;;;4.20;;
20966;SDS011;10642;50.682;18.510;2023-05-07T09:32:36;4.57;;;2.57;;
20966;SDS011;10642;50.682;18.510;2023-05-07T09:35:16;4.70;;;2.67;;
20966;SDS011;10642;50.682;18.510;2023-05-07T09:37:53;4.80;;;2.50;;
20966;SDS011;10642;50.682;18.510;2023-05-07T09:40:25;4.50;;;2.17;;
20966;SDS011;10642;50.682;18.510;2023-05-07T09:42:53;4.10;;;2.20;;
20966;SDS011;10642;50.682;18.510;2023-05-07T09:45:30;4.87;;;2.13;;
20966;SDS011;10642;50.682;18.510;2023-05-07T09:47:58;3.63;;;1.87;;
20966;SDS011;10642;50.682;18.510;2023-05-07T09:50:27;3.07;;;2.13;;
20966;SDS011;10642;50.682;18.510;2023-05-07T09:52:56;5.50;;;2.77;;
20966;SDS011;10642;50.682;18.510;2023-05-07T09:55:24;4.13;;;2.50;;
20966;SDS011;10642;50.682;18.510;2023-05-07T09:57:52;3.80;;;2.30;;
20966;SDS011;10642;50.682;18.510;2023-05-07T10:00:20;4.67;;;2.57;;
20966;SDS011;10642;50.682;18.510;2023-05-07T10:02:48;4.43;;;2.33;;
20966;SDS011;10642;50.682;18.510;2023-05-07T10:05:19;5.20;;;2.20;;
20966;SDS011;10642;50.682;18.510;2023-05-07T10:07:50;2.67;;;1.80;;
20966;SDS011;10642;50.682;18.510;2023-05-07T10:10:19;6.60;;;2.40;;
20966;SDS011;10642;50.682;18.510;2023-05-07T10:12:47;3.20;;;2.30;;
20966;SDS011;10642;50.682;18.510;2023-05-07T10:15:25;2.80;;;2.03;;
20966;SDS011;10642;50.682;18.510;2023-05-07T10:17:55;3.67;;;2.57;;
20966;SDS011;10642;50.682;18.510;2023-05-07T10:20:23;8.23;;;2.50;;
20966;SDS011;10642;50.682;18.510;2023-05-07T10:22:53;3.30;;;2.13;;
20966;SDS011;10642;50.682;18.510;2023-05-07T10:25:31;4.90;;;2.30;;
20966;SDS011;10642;50.682;18.510;2023-05-07T10:28:06;3.13;;;1.93;;
20966;SDS011;10642;50.682;18.510;2023-05-07T10:33:05;2.33;;;1.83;;
20966;SDS011;10642;50.682;18.510;2023-05-07T10:35:37;3.20;;;2.20;;
20966;SDS011;10642;50.682;18.510;2023-05-07T10:38:05;3.93;;;1.93;;
20966;SDS011;10642;50.682;18.510;2023-05-07T10:40:35;3.40;;;2.57;;
20966;SDS011;10642;50.682;18.510;2023-05-07T10:43:03;3.43;;;2.23;;
20966;SDS011;10642;50.682;18.510;2023-05-07T10:48:31;4.07;;;3.10;;
20966;SDS011;10642;50.682;18.510;2023-05-07T10:51:27;4.70;;;2.77;;
20966;SDS011;10642;50.682;18.510;2023-05-07T10:56:40;4.70;;;3.00;;
20966;SDS011;10642;50.682;18.510;2023-05-07T11:01:52;6.07;;;4.03;;
20966;SDS011;10642;50.682;18.510;2023-05-07T11:04:29;5.23;;;3.30;;
20966;SDS011;10642;50.682;18.510;2023-05-07T11:07:23;6.17;;;4.10;;
20966;SDS011;10642;50.682;18.510;2023-05-07T11:15:04;4.63;;;2.60;;
20966;SDS011;10642;50.682;18.510;2023-05-07T11:17:34;5.10;;;3.00;;
20966;SDS011;10642;50.682;18.510;2023-05-07T11:20:18;6.30;;;3.13;;
20966;SDS011;10642;50.682;18.510;2023-05-07T11:22:53;4.83;;;2.63;;
20966;SDS011;10642;50.682;18.510;2023-05-07T11:25:27;4.00;;;2.93;;
20966;SDS011;10642;50.682;18.510;2023-05-07T11:28:17;6.37;;;3.60;;
20966;SDS011;10642;50.682;18.510;2023-05-07T11:30:59;5.07;;;3.60;;
20966;SDS011;10642;50.682;18.510;2023-05-07T11:33:26;5.83;;;3.00;;
20966;SDS011;10642;50.682;18.510;2023-05-07T11:35:56;5.20;;;2.70;;
20966;SDS011;10642;50.682;18.510;2023-05-07T11:38:30;3.67;;;2.97;;
20966;SDS011;10642;50.682;18.510;2023-05-07T11:40:58;4.03;;;2.77;;
20966;SDS011;10642;50.682;18.510;2023-05-07T11:43:29;4.97;;;2.93;;
20966;SDS011;10642;50.682;18.510;2023-05-07T11:45:58;5.20;;;3.00;;
20966;SDS011;10642;50.682;18.510;2023-05-07T11:48:31;4.63;;;3.20;;
20966;SDS011;10642;50.682;18.510;2023-05-07T11:53:25;6.13;;;3.93;;
20966;SDS011;10642;50.682;18.510;2023-05-07T11:55:53;4.80;;;3.20;;
20966;SDS011;10642;50.682;18.510;2023-05-07T11:58:20;5.00;;;3.10;;
20966;SDS011;10642;50.682;18.510;2023-05-07T12:00:51;4.53;;;3.13;;
20966;SDS011;10642;50.682;18.510;2023-05-07T12:03:18;4.50;;;3.10;;
20966;SDS011;10642;50.682;18.510;2023-05-07T12:05:45;5.30;;;3.17;;
20966;SDS011;10642;50.682;18.510;2023-05-07T12:08:16;5.77;;;3.53;;
20966;SDS011;10642;50.682;18.510;2023-05-07T12:10:43;4.87;;;2.93;;
20966;SDS011;10642;50.682;18.510;2023-05-07T12:13:17;4.60;;;3.00;;
20966;SDS011;10642;50.682;18.510;2023-05-07T12:15:44;4.97;;;3.40;;
20966;SDS011;10642;50.682;18.510;2023-05-07T12:18:11;4.90;;;3.00;;
20966;SDS011;10642;50.682;18.510;2023-05-07T12:20:39;3.27;;;2.40;;
20966;SDS011;10642;50.682;18.510;2023-05-07T12:23:06;5.23;;;3.00;;
20966;SDS011;10642;50.682;18.510;2023-05-07T12:25:39;3.87;;;2.50;;
20966;SDS011;10642;50.682;18.510;2023-05-07T12:28:07;7.10;;;2.90;;
20966;SDS011;10642;50.682;18.510;2023-05-07T12:30:37;4.50;;;2.60;;
20966;SDS011;10642;50.682;18.510;2023-05-07T12:33:05;4.20;;;2.60;;
20966;SDS011;10642;50.682;18.510;2023-05-07T12:35:40;4.10;;;2.50;;
20966;SDS011;10642;50.682;18.510;2023-05-07T12:38:07;3.83;;;2.60;;
20966;SDS011;10642;50.682;18.510;2023-05-07T12:40:35;4.73;;;2.63;;
20966;SDS011;10642;50.682;18.510;2023-05-07T12:43:02;3.47;;;2.80;;
20966;SDS011;10642;50.682;18.510;2023-05-07T12:45:29;4.47;;;2.73;;
20966;SDS011;10642;50.682;18.510;2023-05-07T12:47:57;3.97;;;2.90;;
20966;SDS011;10642;50.682;18.510;2023-05-07T12:50:30;5.57;;;3.13;;
20966;SDS011;10642;50.682;18.510;2023-05-07T12:52:57;4.60;;;3.17;;
20966;SDS011;10642;50.682;18.510;2023-05-07T12:55:24;5.33;;;3.60;;
20966;SDS011;10642;50.682;18.510;2023-05-07T12:57:52;4.83;;;3.33;;
20966;SDS011;10642;50.682;18.510;2023-05-07T13:00:37;6.27;;;3.70;;
20966;SDS011;10642;50.682;18.510;2023-05-07T13:03:05;6.43;;;3.83;;
20966;SDS011;10642;50.682;18.510;2023-05-07T13:05:32;7.17;;;4.43;;
20966;SDS011;10642;50.682;18.510;2023-05-07T13:07:59;5.37;;;3.97;;
20966;SDS011;10642;50.682;18.510;2023-05-07T13:10:26;7.53;;;4.20;;
20966;SDS011;10642;50.682;18.510;2023-05-07T13:12:53;6.27;;;3.87;;
20966;SDS011;10642;50.682;18.510;2023-05-07T13:15:20;8.57;;;4.20;;
20966;SDS011;10642;50.682;18.510;2023-05-07T13:17:48;4.97;;;3.57;;
20966;SDS011;10642;50.682;18.510;2023-05-07T13:20:15;5.73;;;3.50;;
20966;SDS011;10642;50.682;18.510;2023-05-07T13:22:42;7.90;;;3.70;;
20966;SDS011;10642;50.682;18.510;2023-05-07T13:25:09;5.10;;;3.23;;
20966;SDS011;10642;50.682;18.510;2023-05-07T13:27:36;4.70;;;3.17;;
20966;SDS011;10642;50.682;18.510;2023-05-07T13:30:04;7.10;;;4.37;;
20966;SDS011;10642;50.682;18.510;2023-05-07T13:32:31;5.40;;;4.10;;
20966;SDS011;10642;50.682;18.510;2023-05-07T13:34:58;6.13;;;4.63;;
20966;SDS011;10642;50.682;18.510;2023-05-07T13:37:25;6.30;;;4.40;;
20966;SDS011;10642;50.682;18.510;2023-05-07T13:39:52;5.70;;;4.10;;
20966;SDS011;10642;50.682;18.510;2023-05-07T13:42:18;9.50;;;3.87;;
20966;SDS011;10642;50.682;18.510;2023-05-07T13:44:45;6.00;;;4.17;;
20966;SDS011;10642;50.682;18.510;2023-05-07T13:47:12;5.70;;;3.57;;
20966;SDS011;10642;50.682;18.510;2023-05-07T13:49:39;5.63;;;3.67;;
20966;SDS011;10642;50.682;18.510;2023-05-07T13:52:06;6.70;;;4.50;;
20966;SDS011;10642;50.682;18.510;2023-05-07T13:54:33;9.37;;;3.67;;
20966;SDS011;10642;50.682;18.510;2023-05-07T13:57:00;8.23;;;4.47;;
20966;SDS011;10642;50.682;18.510;2023-05-07T13:59:27;6.30;;;3.90;;
20966;SDS011;10642;50.682;18.510;2023-05-07T14:01:54;7.50;;;4.00;;
20966;SDS011;10642;50.682;18.510;2023-05-07T14:04:21;6.60;;;3.70;;
20966;SDS011;10642;50.682;18.510;2023-05-07T14:06:48;6.20;;;4.20;;
20966;SDS011;10642;50.682;18.510;2023-05-07T14:09:15;5.30;;;3.50;;
20966;SDS011;10642;50.682;18.510;2023-05-07T14:11:42;6.23;;;3.50;;
20966;SDS011;10642;50.682;18.510;2023-05-07T14:14:09;6.53;;;3.50;;
20966;SDS011;10642;50.682;18.510;2023-05-07T14:16:37;5.33;;;3.70;;
20966;SDS011;10642;50.682;18.510;2023-05-07T14:19:04;6.93;;;3.93;;
20966;SDS011;10642;50.682;18.510;2023-05-07T14:21:31;4.57;;;3.03;;
20966;SDS011;10642;50.682;18.510;2023-05-07T14:23:58;4.90;;;3.40;;
20966;SDS011;10642;50.682;18.510;2023-05-07T14:26:26;8.07;;;3.80;;
20966;SDS011;10642;50.682;18.510;2023-05-07T14:28:53;3.93;;;3.20;;
20966;SDS011;10642;50.682;18.510;2023-05-07T14:31:21;4.90;;;2.80;;
20966;SDS011;10642;50.682;18.510;2023-05-07T14:33:48;5.20;;;3.30;;
20966;SDS011;10642;50.682;18.510;2023-05-07T14:36:17;5.80;;;3.70;;
20966;SDS011;10642;50.682;18.510;2023-05-07T14:38:44;6.60;;;3.80;;
20966;SDS011;10642;50.682;18.510;2023-05-07T14:41:11;5.47;;;3.73;;
20966;SDS011;10642;50.682;18.510;2023-05-07T14:43:38;4.87;;;3.63;;
20966;SDS011;10642;50.682;18.510;2023-05-07T14:46:05;6.83;;;3.97;;
20966;SDS011;10642;50.682;18.510;2023-05-07T14:48:32;9.93;;;4.10;;
20966;SDS011;10642;50.682;18.510;2023-05-07T14:50:59;6.97;;;4.33;;
20966;SDS011;10642;50.682;18.510;2023-05-07T14:53:26;7.40;;;4.80;;
20966;SDS011;10642;50.682;18.510;2023-05-07T14:55:53;7.27;;;4.60;;
20966;SDS011;10642;50.682;18.510;2023-05-07T14:58:20;8.03;;;4.20;;
20966;SDS011;10642;50.682;18.510;2023-05-07T15:00:47;6.40;;;4.50;;
20966;SDS011;10642;50.682;18.510;2023-05-07T15:03:14;8.37;;;4.20;;
20966;SDS011;10642;50.682;18.510;2023-05-07T15:05:43;8.67;;;5.03;;